Latest Observation

67 Stations

10 Minute Data
as of 5/6/26 8:11 PM PDT
Station Date Time Temp (°F) RH (%) Dew Pt (°F) Wind Spd (mph) Wind Dir (°) Wind Gust (mph) Wind Gst Dir (°) Latest Rain (In) Soil Moist (%) Soil Temp (°F) Daily Rain (In) Daily Min Temp (°F) Daily Max Temp (°F) Daily Max Wind (mph)
Hobart Mills 5/6/26 2000 57.8   6.0 62   16 45.0   0.2 0.0   0.0 N | 0 0.0   0.0 NW | 316 0.00 - 32.0   0.0 0.03 48.4   14.0 69.6   17.4 8.2   2.2
Prosser Dam 5/6/26 2010 62.4   11.3 54   30 45.6   0.7 0.7   0.9 SSE | 147 1.7   2.4 SSE | 148 0.00 24.5   0.7 51.1   2.4 0.01 36.0   0.7 70.8   8.4 20.1   3.0
West Incline Village 5/6/26 2010 56.1   8.8 49   30 37.3   4.1 1.8   1.2 NNE | 26 3.4   0.7 NE | 42 0.00 34.3   0.9 44.4   1.3 0.00 41.7   9.2 63.0   11.5 12.9   3.6
Incline Village (Fairview Blvd) 5/6/26 2010 56.2   8.7 45   29 35.3   4.4 2.0   2.0 NE | 39 3.2   3.2 NE | 37 0.00 27.0   1.1 49.8   0.6 0.00 41.2   7.7 63.7   11.8 10.2   2.1
Incline Village (Diamond Peak) 5/6/26 2010 54.4   8.4 41   35 31.4   7.6 1.6   1.3 E | 80 2.6   0.5 E | 91 0.00 9.9   0.3 45.1   3.2 0.00 42.7   10.9 60.4   10.9 10.4   1.9
Incline Village (Mill Creek) 5/6/26 2010 56.0   8.5 50   35 37.5   5.7 0.8   0.6 ENE | 71 2.4   0.2 ENE | 71 0.00 11.4   0.1 45.0   0.4 0.00 40.4   6.6 65.4   12.3 8.6   0.1
Incline Village (Lakeshore Blvd) 5/6/26 2010 54.1   6.2 67   21 43.2   1.2 0.0   0.2 NNE | 22 0.7   0.4 NNE | 24 0.00 33.1   2.3 56.8   4.0 0.00 36.4   0.6 61.8   10.3 6.1   0.4
Glenbrook 5/6/26 2010 55.3   8.6 54   32 39.0   3.9 1.3   0.3 E | 79 4.5   1.2 E | 98 0.00 44.3   0.0 44.7   0.3 0.00 38.4   4.3 65.1   10.3 7.8   2.1
Zephyr Cove 5/6/26 2010 57.6   8.8 53   27 40.7   2.4 0.1   0.3 ENE | 69 0.9   0.7 ENE | 70 0.00 - 34.3   0.0 0.00 41.6   8.9 65.1   10.7 5.0   2.4
Kingsbury Grade 5/6/26 2010 55.2   8.8 48   33 35.9   5.2 0.1   0.1 N | 357 1.4   1.4 N | 354 0.00 7.1   1.0 53.5   4.0 0.00 38.1   6.1 65.9   10.1 9.1   2.4
South Daggett Pass (Ridge) 5/6/26 2010 54.8   8.9 43   40 32.6   8.2 1.6   2.2 W | 280 5.3   5.7 W | 273 0.00 6.8   0.1 46.2   1.1 0.00 41.4   10.1 63.3   11.4 10.9   0.7
Palomino Valley 5/6/26 2010 67.4   0.2 28   11 32.8   8.8 2.7   3.4 SW | 221 4.3   6.3 SW | 222 0.00 7.0   0.1 67.7   2.2 0.00 45.8   0.4 78.4   6.4 20.7   0.9
East Cold Springs 5/6/26 2010 65.7   5.5 34   19 36.3   6.7 5.1   0.6 W | 277 6.1   1.0 WNW | 282 0.00 1.7   0.1 58.5   2.2 0.00 47.4   7.1 73.1   6.5 20.4   2.6
Peavine 5/6/26 2010 57.4   2.0 44   1 35.7   2.4 6.3   2.9 SSW | 193 8.6   1.2 SSW | 193 0.00 - 53.4   0.0 0.00 49.4   8.8 69.6   7.2 18.5   2.2
West Verdi Peak 5/6/26 2010 62.2   6.3 37   26 35.6   8.0 2.1   1.6 NW | 304 6.1   4.1 WNW | 299 0.00 21.9   0.6 54.4   2.3 0.00 43.0   5.9 69.9   7.3 16.2   2.7
West Verdi 5/6/26 2010 62.2   0.3 41   13 38.0   7.4 2.6   4.1 W | 280 6.2   8.4 WSW | 247 0.00 8.3   0.0 63.7   3.9 0.00 45.4   5.2 74.3   6.1 16.3   3.0
South Verdi 5/6/26 2010 67.2   5.6 30   22 34.7   8.9 5.3   3.8 WSW | 248 7.2   5.7 WSW | 248 0.00 17.0   0.0 65.7   5.8 0.00 46.5   5.4 72.3   6.6 21.9   1.5
Northwest Reno 5/6/26 2010 70.4   6.1 25   17 33.0   7.9 6.2   7.1 NW | 323 7.6   8.4 NW | 319 0.00 23.8   0.3 65.0   3.8 0.00 53.2   9.7 75.0   7.5 23.0   5.8
North Lawton 5/6/26 2010 67.1   4.8 29   18 34.2   7.9 7.7   0.5 NW | 316 8.4   1.6 NW | 310 0.00 - 39.1   0.0 0.00 48.7   6.1 74.3   7.5 26.8   10.1
West Reno (Mogul) 5/6/26 2010 66.4   2.6 32   17 35.4   8.5 6.8   2.8 SW | 227 8.6   7.2 SW | 218 0.00 37.8   0.5 60.3   0.7 0.00 49.5   6.9 74.3   7.6 22.4   4.8
Caughlin (Hunter Lake Trail) 9/16/25 0800 59.7   3.5 41   11 35.9   2.7 0.0   0.0 N | 0 0.0   0.0 ENE | 66 0.00 15.7   0.0 69.8   0.5 0.00 55.7   3.2 67.7   9.1 9.4   0.9
ArrowCreek 5/6/26 2010 65.9   2.1 32   13 35.1   6.7 12.0   1.5 WSW | 251 13.7   3.2 WSW | 255 0.00 - 32.0   0.0 0.00 49.1   5.7 73.9   6.8 18.8   1.1
Tracy 5/6/26 2010 74.1   6.5 21   21 32.2   11.6 1.2   8.0 NNE | 28 4.0   9.7 N | 350 0.00 8.0   0.0 64.3   2.8 0.00 53.9   6.1 79.1   8.2 18.4   0.6
Virginia Highlands 5/6/26 2010 64.4   8.0 27   31 29.3   12.3 4.0   1.4 WNW | 291 7.7   1.5 WNW | 295 0.00 8.5   0.3 55.3   0.4 0.00 51.0   10.9 70.0   8.1 18.6   3.6
Virginia City 5/6/26 2010 63.4   9.8 27   34 29.3   11.4 6.8   1.5 NNW | 340 9.1   4.0 NNW | 339 0.00 8.4   0.2 56.5   3.2 0.00 49.5   10.9 69.7   13.0 24.2   3.1
Six Mile Canyon 9/9/25 0630 60.2   9.6 37   6 33.7   4.8 4.1   2.5 W | 277 6.1   2.9 WNW | 286 0.00 12.5   0.0 75.5   0.7 0.00 57.9   7.6 64.4   1.9 7.0   3.9
Mt Rose Highway 4/30/26 0510 40.8   4.7 47   13 22.3   1.3 2.3   0.2 WSW | 243 4.8   2.1 WSW | 246 0.00 24.1   0.3 43.0   0.8 0.00 40.5   4.7 43.0   5.3 7.7   0.4
Pleasant Valley 5/6/26 2010 66.3   6.6 34   22 37.0   6.9 3.1   4.8 S | 178 5.2   8.1 SSE | 167 0.00 2.8   0.0 62.4   3.0 0.00 45.1   1.8 75.6   9.2 17.8   3.0
New Washoe City 5/6/26 2010 62.0   3.5 37   17 35.7   6.6 2.4   4.0 NE | 42 4.8   7.2 NE | 38 0.00 4.4   0.0 58.2   2.1 0.00 45.3   2.5 73.4   9.1 21.0   2.5
Franktown Creek 5/6/26 2010 59.4   1.2 46   10 38.9   4.1 0.6   1.6 W | 281 2.9   7.2 W | 281 0.00 11.2   0.1 54.7   1.3 0.00 44.0   1.2 74.8   9.7 15.2   2.8
Musgrove Creek 5/6/26 2010 64.2   6.9 30   24 31.8   8.9 2.8   0.6 SW | 221 6.3   3.5 S | 173 0.00 45.1   0.0 52.6   0.5 0.00 49.4   8.5 71.3   8.6 12.5   0.5
East Carson 11/23/24 0110 28.6   28.4 - - 4.7   11.0 SW | 220 14.7   10.1 SW | 219 0.02 - 50.9   0.1 0.02 -25.9   79.1 42.9   14.6 16.0   10.7
Kings Canyon 5/6/26 2010 63.1   3.8 35   15 34.8   5.9 4.2   0.6 SW | 236 7.5   3.0 WSW | 250 0.00 15.1   0.1 61.3   2.1 0.00 43.3   1.8 72.5   9.3 21.7   9.2
Carson City (Voltaire Canyon) 5/6/26 2010 71.4   12.0 22   32 30.3   12.1 9.9   1.9 WNW | 301 11.8   4.1 WNW | 297 0.00 2.8   0.0 59.6   0.0 0.00 49.8   7.7 73.8   11.1 21.7   2.4
Jacks Valley 5/6/26 2010 66.6   8.5 30   26 34.2   8.2 6.5   0.4 WNW | 293 12.4   3.4 WNW | 302 0.00 14.0   0.5 69.6   6.8 0.00 44.5   3.0 73.4   11.6 20.6   4.9
Genoa 5/6/26 2010 65.7   5.5 34   21 36.2   7.3 0.3   0.5 SW | 220 3.2   2.2 WSW | 258 0.00 9.4   1.3 65.3   8.2 0.00 45.8   2.6 76.2   11.5 12.0   2.1
South Genoa (Walleys Hot Springs) 5/6/26 2010 72.2   10.3 24   26 33.7   9.6 12.3   7.9 W | 270 20.6   10.3 W | 274 0.00 13.8   0.4 61.6   1.8 0.00 42.8   1.4 76.5   11.9 20.6   9.4
SW Gardnerville (HWY 88) 5/6/26 2010 64.8   5.8 44   12 42.1   1.0 2.7   0.1 NW | 315 4.5   0.2 WNW | 296 0.00 3.4   0.0 56.7   2.6 0.00 41.6   1.6 74.5   11.0 13.7   2.2
Sheridan 5/6/26 2010 65.2   8.3 33   23 35.0   6.0 8.3   3.2 WSW | 242 10.2   3.2 WSW | 243 0.00 5.6   0.8 61.8   3.6 0.00 43.8   0.7 74.8   10.6 11.8   1.6
Ruhenstroth 5/6/26 2010 67.1   9.8 30   29 34.4   8.7 1.2   4.3 ESE | 117 2.5   5.8 SE | 131 0.00 12.6   0.0 62.3   4.3 0.00 42.6   0.4 75.3   11.9 17.0   5.4
Double Spring 5/6/26 2010 61.4   10.4 36   33 33.9   7.1 0.9   3.8 N | 357 2.9   2.9 NNW | 336 0.00 30.9   0.8 58.7   4.7 0.00 37.5   0.7 69.2   13.3 20.0   6.7
North Topaz Lake 5/6/26 2010 67.1   11.3 25   30 30.4   9.9 7.7   4.9 WNW | 303 8.8   4.7 WNW | 297 0.00 9.6   0.5 64.4   6.8 0.00 47.3   7.1 70.8   13.2 15.9   4.8
Wild Oat Mountain 5/6/26 2010 64.1   10.2 27   31 29.3   9.9 4.0   2.5 NNW | 348 5.5   2.2 NNW | 342 0.00 16.6   0.1 60.4   3.0 0.00 47.0   8.9 69.4   12.6 15.5   1.1
Smith Valley 5/6/26 2010 66.8   9.8 34   25 37.5   5.4 8.3   5.6 W | 266 11.8   6.1 W | 267 0.00 5.8   0.0 63.6   2.2 0.00 43.9   0.4 74.5   11.5 12.8   3.1
Pine Grove Mountain 5/6/26 2010 54.0   10.6 36   34 27.6   6.6 4.2   0.8 N | 5 5.5   1.6 N | 354 0.00 23.1   0.9 53.5   6.6 0.00 44.1   12.4 59.4   11.9 17.0   3.7
Paradise Hill 5/6/26 2010 68.2   2.6 22   1 28.1   3.4 3.9   6.0 WNW | 297 4.8   7.2 WNW | 282 0.00 8.0   0.0 63.6   1.7 0.00 44.9   1.4 76.6   2.9 19.0   7.0
Winnemucca 5/6/26 2010 65.2   0.1 23   1 26.3   0.9 7.2   0.1 ESE | 114 9.1   2.6 SE | 132 0.00 6.0   0.0 63.6   3.0 0.00 43.9   0.5 76.1   3.8 15.9   8.4
NE Elko 5/6/26 2010 62.1   8.4 28   36 28.5   13.3 4.8   2.3 WNW | 303 6.6   5.1 WNW | 292 0.00 12.5   0.1 64.4   4.0 0.00 32.8   12.0 72.3   10.3 23.2   0.6
North Elko 5/6/26 2010 62.7   13.7 29   53 29.7   13.9 9.9   4.2 NW | 323 10.9   3.6 NW | 324 0.00 28.4   0.1 58.0   1.4 0.00 39.4   3.6 69.1   7.9 24.6   4.2
South Elko 5/6/26 2010 75.9   19.6 39 48.9 0.1   6.3 N | 350 1.2   7.6 N | 0 0.00 18.6   0.1 60.8   3.4 0.00 44.8   1.4 - 21.1   6.6
Lamoille 1/28/26 1720 33.2   0.5 65   17 22.8   6.3 5.8   1.5 SSE | 166 7.7   1.9 SE | 139 0.00 12.2   0.0 33.4   0.1 0.02 23.5   2.0 36.5   5.9 25.6   17.4
Reid Gardner Sub 5/6/26 1130 73.4   2.5 26   2 36.5   0.4 2.6   2.7 SSW | 196 7.6   4.5 SW | 218 0.00 24.0   0.1 70.1   0.4 0.00 50.0   4.6 74.0   1.7 7.6   7.8
Corn Creek 5/6/26 2010 76.0   8.5 23   4 35.9   3.7 5.5   4.7 ESE | 111 9.1   6.5 E | 98 0.00 3.9   0.0 79.2   2.3 0.00 59.1   6.9 83.0   11.8 23.5   4.8
Lucky Strike 5/6/26 2010 65.6   11.6 23   10 27.2   1.2 4.7   3.3 SSW | 208 6.0   5.0 SSW | 206 0.00 4.5   0.0 74.3   3.1 0.00 52.9   10.5 71.1   11.8 29.6   11.8
Lower Angel Peak 5/6/26 2010 55.4   10.6 30   17 24.8   1.1 5.3   0.3 SSE | 165 7.3   0.7 S | 180 0.00 10.1   0.1 57.8   1.5 0.00 42.1   8.5 65.3   11.1 25.2   9.4
Angel Peak 5/6/26 2010 49.0   10.9 33   23 21.5   2.5 1.7   1.7 SE | 124 6.8   2.9 E | 99 0.00 3.6   0.1 57.0   6.5 0.00 36.6   7.1 56.2   11.5 31.2   15.4
Upper Kyle Canyon 5/6/26 2010 52.0   10.1 34   20 24.4   2.1 2.4   1.1 N | 352 6.0   0.7 NW | 324 0.00 13.5   0.1 56.9   2.3 0.00 39.2   8.7 59.7   13.1 23.0   5.1
Mt Charleston 5/6/26 2010 51.1   9.2 37   17 25.8   0.7 2.5   1.9 WNW | 286 5.3   3.0 NW | 308 0.00 18.3   0.0 49.1   0.4 0.00 38.6   7.4 60.7   12.7 19.6   4.0
Mid Kyle Canyon 5/6/26 2010 56.1   10.6 32   17 26.6   0.6 8.2   0.6 WNW | 297 11.0   0.4 NW | 307 0.00 7.0   0.0 60.2   1.8 0.00 41.6   6.8 66.4   12.1 25.3   6.3
Blue Diamond 5/6/26 2110 74.4   11.1 24   7 35.3   3.1 2.2   7.2 N | 10 4.5   11.4 NNE | 14 0.00 3.1   0.4 75.8   6.2 0.00 55.8   7.8 79.2   9.8 18.8   3.0
Artesian Sub 5/6/26 2010 84.9   10.1 18   5 37.2   2.6 1.4   3.1 ENE | 78 4.3   5.6 E | 81 0.00 13.2   0.1 74.1   0.2 0.00 63.6   4.5 87.8   9.5 12.7   3.7
North Henderson 5/6/26 2010 85.1   9.9 19   4 38.2   3.8 2.4   5.8 NE | 47 4.6   9.1 NNE | 29 0.00 8.7   0.0 79.0   0.4 0.00 62.7   1.2 87.4   9.5 16.2   3.5
Sandy Valley 5/6/26 2010 78.9   13.4 23   8 37.9   4.1 1.3   5.0 E | 80 2.0   6.7 E | 97 0.00 4.6   0.1 83.0   1.8 0.00 53.6   2.6 82.0   12.1 16.6   2.1
Searchlight 5/6/26 2010 73.0   10.4 24   7 33.8   2.2 0.0   3.1 N | 0 0.0   5.8 ESE | 104 0.00 4.7   0.1 80.3   4.7 0.00 47.8   1.0 78.2   11.0 21.9   6.1
Laughlin 5/6/26 2010 86.9   9.4 22   3 43.0   4.9 2.7   5.2 SSW | 197 4.6   7.5 SSE | 165 0.00 4.1   0.0 82.7   0.1 0.00 62.4   0.7 92.3   11.9 18.8   1.2
31Mission Hills 5/6/26 2010 80.6   11.4 18   5 33.3   3.1 4.8   1.7 SSW | 192 6.5   4.7 S | 188 0.00 4.0   0.1 89.9   3.2 0.00 59.7   9.7 83.6   9.6 21.9   2.9
32 Enterprise Sierra Cliffs 5/6/26 2010 77.5   11.3 19   7 32.2   1.5 5.3   1.1 SSW | 212 6.7   1.9 SSW | 211 0.00 2.4   0.1 82.3   3.9 0.00 60.9   5.0 81.7   12.1 14.8   0.1
Max     86.9 67 48.9 12.3 - 20.6 - 0.00 45.1 89.9 0.03 63.6 92.3 31.2
Avg     64.8 34 34.2 3.8 - 6.0 - 0.00 13.3 60.0 - - - -
Min     49.0 18 21.5 0.0 - 0.0 - 0.00 1.7 32.0 0.00 32.8 56.2 5.0